Time;durP1;ratioP1;P1;durP2;ratioP2;P2;SDS_P1;SDS_P2;PMS_P1;PMS_P2;Temp;Humidity;BMP_temperature;BMP_pressure;BME280_temperature;BME280_humidity;BME280_pressure;Samples;Min_cycle;Max_cycle;Signal;HPM_P1;HPM_P2
2024/02/21 00:02:01;;;;;;;8.70;2.83;;;;;;;;;;4991170;28;20026;-78
2024/02/21 00:04:27;;;;;;;13.63;3.28;;;;;;;;;;4991433;28;20025;-78
2024/02/21 00:06:52;;;;;;;12.97;3.00;;;;;;;;;;4989825;28;20503;-78
2024/02/21 00:09:19;;;;;;;11.10;2.60;;;;;;;;;;4991346;28;20344;-78
2024/02/21 00:11:44;;;;;;;11.65;2.50;;;;;;;;;;4990935;28;20042;-77
2024/02/21 00:14:09;;;;;;;12.98;2.58;;;;;;;;;;4990999;28;20534;-78
2024/02/21 00:16:35;;;;;;;9.73;2.58;;;;;;;;;;4991741;28;20037;-79
2024/02/21 00:19:00;;;;;;;15.70;3.15;;;;;;;;;;4991548;28;20392;-78
2024/02/21 00:21:25;;;;;;;11.07;3.00;;;;;;;;;;4990541;28;20062;-78
2024/02/21 00:23:50;;;;;;;12.63;3.03;;;;;;;;;;4989774;28;20408;-78
2024/02/21 00:26:15;;;;;;;13.57;3.55;;;;;;;;;;4991020;28;20027;-78
2024/02/21 00:28:41;;;;;;;14.00;3.13;;;;;;;;;;4991209;28;20033;-78
2024/02/21 00:31:06;;;;;;;12.23;2.95;;;;;;;;;;4990343;28;20035;-78
2024/02/21 00:33:31;;;;;;;15.95;4.03;;;;;;;;;;4990921;28;20037;-78
2024/02/21 00:35:56;;;;;;;11.93;3.65;;;;;;;;;;4990909;28;20477;-78
2024/02/21 00:38:21;;;;;;;11.32;2.83;;;;;;;;;;4990119;28;20080;-79
2024/02/21 00:40:46;;;;;;;11.48;2.38;;;;;;;;;;4990503;28;20038;-78
2024/02/21 00:43:12;;;;;;;13.73;3.10;;;;;;;;;;4990807;28;20097;-78
2024/02/21 00:45:37;;;;;;;10.60;3.05;;;;;;;;;;4992947;28;20022;-78
2024/02/21 00:48:02;;;;;;;13.15;3.55;;;;;;;;;;4990925;28;20034;-78
2024/02/21 00:50:28;;;;;;;11.73;2.50;;;;;;;;;;4991403;28;20559;-78
2024/02/21 00:52:53;;;;;;;13.70;3.15;;;;;;;;;;4990884;28;20034;-78
2024/02/21 00:55:18;;;;;;;10.85;2.95;;;;;;;;;;4990615;28;20089;-78
2024/02/21 00:57:43;;;;;;;12.05;2.83;;;;;;;;;;5000028;28;20034;-78
2024/02/21 01:00:09;;;;;;;11.70;3.08;;;;;;;;;;4990625;28;20085;-78
2024/02/21 01:02:34;;;;;;;11.88;2.70;;;;;;;;;;4990583;28;20026;-78
2024/02/21 01:04:59;;;;;;;11.25;2.90;;;;;;;;;;4989538;28;20487;-78
2024/02/21 01:07:25;;;;;;;11.38;3.05;;;;;;;;;;4990651;28;20050;-78
2024/02/21 01:09:51;;;;;;;14.32;2.95;;;;;;;;;;4990153;28;20045;-78
2024/02/21 01:12:16;;;;;;;9.85;2.60;;;;;;;;;;4990164;28;20030;-79
2024/02/21 01:14:41;;;;;;;12.40;3.05;;;;;;;;;;4990499;28;20039;-80
2024/02/21 01:17:06;;;;;;;10.35;2.88;;;;;;;;;;4990210;28;20038;-78
2024/02/21 01:19:31;;;;;;;10.57;2.97;;;;;;;;;;4990413;28;20034;-78
2024/02/21 01:21:57;;;;;;;7.83;2.27;;;;;;;;;;4990125;28;20065;-78
2024/02/21 01:24:22;;;;;;;11.32;2.65;;;;;;;;;;4989874;28;20297;-79
2024/02/21 01:26:47;;;;;;;11.20;3.38;;;;;;;;;;4994328;28;20113;-78
2024/02/21 01:29:12;;;;;;;10.88;2.35;;;;;;;;;;4990272;28;20049;-78
2024/02/21 01:31:37;;;;;;;5.70;2.35;;;;;;;;;;4990339;28;20022;-78
2024/02/21 01:34:02;;;;;;;13.50;3.97;;;;;;;;;;4991642;28;20860;-78
2024/02/21 01:36:28;;;;;;;14.57;3.03;;;;;;;;;;4990698;28;20033;-79
2024/02/21 01:38:53;;;;;;;14.18;3.90;;;;;;;;;;4990270;28;20566;-78
2024/02/21 01:41:18;;;;;;;7.72;2.55;;;;;;;;;;4989708;28;20046;-78
2024/02/21 01:43:43;;;;;;;13.52;3.13;;;;;;;;;;4990078;28;20034;-78
2024/02/21 01:46:08;;;;;;;11.07;2.45;;;;;;;;;;4990554;28;20031;-78
2024/02/21 01:48:34;;;;;;;10.32;2.47;;;;;;;;;;4990281;28;20060;-79
2024/02/21 01:51:00;;;;;;;8.00;2.42;;;;;;;;;;4994534;28;20037;-78
2024/02/21 01:53:29;;;;;;;11.10;3.13;;;;;;;;;;4990275;28;20507;-77
2024/02/21 01:55:55;;;;;;;9.50;2.33;;;;;;;;;;4986866;28;20125;-78
2024/02/21 01:58:20;;;;;;;17.90;3.15;;;;;;;;;;4989985;28;20459;-78
2024/02/21 02:00:46;;;;;;;10.32;2.55;;;;;;;;;;4991739;28;20419;-78
2024/02/21 02:03:18;;;;;;;11.27;2.95;;;;;;;;;;4993657;28;20046;-78
2024/02/21 02:05:44;;;;;;;10.50;2.85;;;;;;;;;;4995359;28;20563;-78
2024/02/21 02:08:09;;;;;;;12.00;2.83;;;;;;;;;;4993419;28;20117;-78
2024/02/21 02:10:35;;;;;;;12.77;3.20;;;;;;;;;;4993089;28;20101;-78
2024/02/21 02:13:00;;;;;;;10.93;2.83;;;;;;;;;;4993685;28;20065;-78
2024/02/21 02:15:25;;;;;;;8.18;2.42;;;;;;;;;;4993396;28;20559;-78
2024/02/21 02:17:50;;;;;;;11.40;3.10;;;;;;;;;;4993712;28;20468;-78
2024/02/21 02:20:16;;;;;;;13.35;3.45;;;;;;;;;;4993046;28;20034;-78
2024/02/21 02:22:43;;;;;;;12.48;2.95;;;;;;;;;;4993143;28;20041;-78
2024/02/21 02:25:08;;;;;;;11.45;2.60;;;;;;;;;;4993081;28;20085;-78
2024/02/21 02:27:40;;;;;;;8.20;2.65;;;;;;;;;;4993460;28;20034;-78
2024/02/21 02:30:06;;;;;;;11.32;3.40;;;;;;;;;;4993258;28;20121;-78
2024/02/21 02:32:31;;;;;;;13.30;3.42;;;;;;;;;;4992729;28;20106;-78
2024/02/21 02:34:56;;;;;;;14.60;2.72;;;;;;;;;;4993200;28;20061;-78
2024/02/21 02:37:22;;;;;;;9.27;2.53;;;;;;;;;;4993103;28;20121;-78
2024/02/21 02:39:47;;;;;;;10.10;2.55;;;;;;;;;;4992068;28;20061;-79
2024/02/21 02:42:12;;;;;;;15.30;4.25;;;;;;;;;;4993247;28;20030;-78
2024/02/21 02:44:37;;;;;;;12.25;2.75;;;;;;;;;;4995783;28;20030;-78
2024/02/21 02:47:03;;;;;;;13.80;3.35;;;;;;;;;;4995239;28;20590;-79
2024/02/21 02:49:28;;;;;;;13.48;2.80;;;;;;;;;;4992611;28;20023;-79
2024/02/21 02:51:53;;;;;;;10.52;2.78;;;;;;;;;;4992636;28;20100;-78
2024/02/21 02:54:18;;;;;;;11.80;3.35;;;;;;;;;;4992555;28;20034;-78
2024/02/21 02:56:43;;;;;;;10.15;2.72;;;;;;;;;;4993110;28;20018;-79
2024/02/21 02:59:09;;;;;;;9.35;2.63;;;;;;;;;;4992395;28;20565;-79
2024/02/21 03:01:34;;;;;;;10.32;2.40;;;;;;;;;;4991839;28;20030;-79
2024/02/21 03:03:59;;;;;;;12.18;2.90;;;;;;;;;;4985576;28;20034;-78
2024/02/21 03:06:24;;;;;;;10.15;2.38;;;;;;;;;;4992700;28;20069;-78
2024/02/21 03:08:52;;;;;;;11.57;2.63;;;;;;;;;;4992262;28;20037;-78
2024/02/21 03:11:17;;;;;;;13.65;3.03;;;;;;;;;;4990997;28;20288;-79
2024/02/21 03:13:42;;;;;;;9.35;2.28;;;;;;;;;;4992250;28;20547;-79
2024/02/21 03:16:07;;;;;;;11.10;3.00;;;;;;;;;;4992488;28;20033;-79
2024/02/21 03:18:32;;;;;;;11.10;3.40;;;;;;;;;;4992252;28;20117;-78
2024/02/21 03:20:58;;;;;;;11.10;3.17;;;;;;;;;;4991938;28;20030;-78
2024/02/21 03:23:23;;;;;;;10.68;2.92;;;;;;;;;;4992181;28;20034;-78
2024/02/21 03:25:48;;;;;;;13.20;2.77;;;;;;;;;;4990887;28;20026;-78
2024/02/21 03:28:13;;;;;;;9.77;2.30;;;;;;;;;;4992096;28;20277;-78
2024/02/21 03:30:38;;;;;;;11.65;3.83;;;;;;;;;;4994230;28;20366;-78
2024/02/21 03:33:04;;;;;;;11.32;2.92;;;;;;;;;;4992179;28;20085;-78
2024/02/21 03:35:29;;;;;;;10.45;2.85;;;;;;;;;;4991784;28;20034;-78
2024/02/21 03:37:54;;;;;;;8.88;3.28;;;;;;;;;;4992456;28;20483;-78
2024/02/21 03:40:19;;;;;;;15.38;3.33;;;;;;;;;;4991763;28;20038;-78
2024/02/21 03:42:44;;;;;;;11.52;3.05;;;;;;;;;;4990518;28;20431;-78
2024/02/21 03:45:09;;;;;;;9.85;2.90;;;;;;;;;;4991839;28;20113;-79
2024/02/21 03:47:35;;;;;;;12.55;3.08;;;;;;;;;;4996640;28;20153;-78
2024/02/21 03:50:00;;;;;;;13.27;3.50;;;;;;;;;;4992097;28;20030;-78
2024/02/21 03:52:25;;;;;;;11.88;3.40;;;;;;;;;;4990211;28;20046;-78
2024/02/21 03:54:50;;;;;;;11.85;2.83;;;;;;;;;;4994592;28;20410;-78
2024/02/21 03:57:17;;;;;;;14.38;3.08;;;;;;;;;;4991869;28;20038;-78
2024/02/21 03:59:42;;;;;;;11.20;2.83;;;;;;;;;;4989904;28;20479;-79
2024/02/21 04:02:08;;;;;;;14.50;3.63;;;;;;;;;;4991318;28;20149;-78
2024/02/21 04:04:34;;;;;;;12.05;4.15;;;;;;;;;;4989752;28;20029;-79
2024/02/21 04:06:59;;;;;;;9.73;2.88;;;;;;;;;;4991682;28;20555;-78
2024/02/21 04:09:24;;;;;;;11.82;2.88;;;;;;;;;;4989560;28;20026;-78
2024/02/21 04:11:49;;;;;;;13.40;2.90;;;;;;;;;;4991001;28;20030;-78
2024/02/21 04:14:14;;;;;;;13.60;4.78;;;;;;;;;;4991136;28;20124;-78
2024/02/21 04:16:40;;;;;;;14.70;2.72;;;;;;;;;;4991368;28;20058;-78
2024/02/21 04:19:05;;;;;;;13.73;3.20;;;;;;;;;;4991240;28;20113;-79
2024/02/21 04:21:30;;;;;;;13.25;2.88;;;;;;;;;;4990372;28;20089;-79
2024/02/21 04:23:55;;;;;;;11.30;2.67;;;;;;;;;;4991097;28;20118;-78
2024/02/21 04:26:20;;;;;;;13.68;3.28;;;;;;;;;;4991083;28;20046;-79
2024/02/21 04:28:46;;;;;;;11.05;2.83;;;;;;;;;;4991160;28;20023;-78
2024/02/21 04:31:11;;;;;;;13.48;2.90;;;;;;;;;;4990614;28;20045;-78
2024/02/21 04:33:36;;;;;;;11.90;3.40;;;;;;;;;;4990780;28;20060;-78
2024/02/21 04:36:02;;;;;;;9.50;2.40;;;;;;;;;;4987691;28;20039;-79
2024/02/21 04:38:28;;;;;;;10.43;2.38;;;;;;;;;;4990987;28;20046;-80
2024/02/21 04:40:53;;;;;;;9.73;2.75;;;;;;;;;;4991702;28;20039;-79
2024/02/21 04:43:18;;;;;;;11.93;3.15;;;;;;;;;;4989169;28;20387;-79
2024/02/21 04:45:43;;;;;;;13.18;3.22;;;;;;;;;;4990875;28;20030;-79
2024/02/21 04:48:09;;;;;;;16.17;3.63;;;;;;;;;;4990868;28;20038;-80
2024/02/21 04:50:34;;;;;;;10.15;3.15;;;;;;;;;;4991692;28;20023;-79
2024/02/21 04:52:59;;;;;;;11.98;3.47;;;;;;;;;;4987758;28;20041;-80
2024/02/21 04:55:24;;;;;;;11.95;3.65;;;;;;;;;;4987889;28;20035;-80
2024/02/21 04:57:49;;;;;;;11.15;3.00;;;;;;;;;;4991291;28;20057;-80
2024/02/21 05:00:15;;;;;;;21.33;4.18;;;;;;;;;;4991109;28;20034;-80
2024/02/21 05:02:40;;;;;;;7.60;2.80;;;;;;;;;;4990808;28;20031;-79
2024/02/21 05:05:05;;;;;;;9.40;3.00;;;;;;;;;;4990993;28;20027;-79
2024/02/21 05:07:30;;;;;;;12.40;2.90;;;;;;;;;;4990769;28;20034;-79
2024/02/21 05:09:55;;;;;;;14.18;2.95;;;;;;;;;;4991327;28;20066;-79
2024/02/21 05:12:20;;;;;;;10.50;3.08;;;;;;;;;;4989276;28;20038;-79
2024/02/21 05:14:46;;;;;;;10.75;3.17;;;;;;;;;;4986411;28;20033;-79
2024/02/21 05:17:12;;;;;;;12.20;2.85;;;;;;;;;;4990627;28;20121;-78
2024/02/21 05:19:37;;;;;;;9.57;3.22;;;;;;;;;;4990600;28;20415;-78
2024/02/21 05:22:02;;;;;;;13.77;3.83;;;;;;;;;;4989952;28;20042;-78
2024/02/21 05:24:27;;;;;;;10.50;2.60;;;;;;;;;;4989946;28;20090;-78
2024/02/21 05:26:53;;;;;;;11.43;2.72;;;;;;;;;;4992484;28;20034;-78
2024/02/21 05:29:18;;;;;;;13.10;3.67;;;;;;;;;;4990532;28;20386;-78
2024/02/21 05:31:53;;;;;;;11.70;3.23;;;;;;;;;;4990401;28;20026;-78
2024/02/21 05:34:18;;;;;;;18.10;4.50;;;;;;;;;;4992945;28;20289;-78
2024/02/21 05:36:43;;;;;;;13.70;3.70;;;;;;;;;;4992710;28;20030;-78
2024/02/21 05:39:09;;;;;;;13.13;3.45;;;;;;;;;;4994458;28;20027;-79
2024/02/21 05:41:34;;;;;;;11.30;3.40;;;;;;;;;;4993565;28;20034;-78
2024/02/21 05:43:59;;;;;;;11.52;3.25;;;;;;;;;;5002640;28;20394;-80
2024/02/21 05:46:24;;;;;;;11.37;3.37;;;;;;;;;;4994422;28;20031;-79
2024/02/21 05:48:49;;;;;;;11.50;3.33;;;;;;;;;;4997552;28;20754;-79
2024/02/21 05:51:14;;;;;;;10.77;3.15;;;;;;;;;;4993301;28;20093;-79
2024/02/21 05:53:40;;;;;;;12.30;3.10;;;;;;;;;;4996194;28;20026;-79
2024/02/21 05:56:09;;;;;;;12.70;3.78;;;;;;;;;;4994250;28;20057;-79
2024/02/21 05:58:35;;;;;;;11.23;3.15;;;;;;;;;;4993903;28;20026;-79
2024/02/21 06:01:01;;;;;;;14.53;3.83;;;;;;;;;;4993805;28;20027;-79
2024/02/21 06:03:28;;;;;;;14.82;5.57;;;;;;;;;;4987433;28;20297;-80
2024/02/21 06:05:53;;;;;;;11.88;3.85;;;;;;;;;;4993498;28;20038;-78
2024/02/21 06:08:18;;;;;;;12.02;3.20;;;;;;;;;;4993144;28;20030;-79
2024/02/21 06:10:43;;;;;;;10.88;4.03;;;;;;;;;;4992661;28;20471;-79
2024/02/21 06:13:09;;;;;;;12.30;3.13;;;;;;;;;;4993896;28;20030;-79
2024/02/21 06:15:34;;;;;;;10.15;4.32;;;;;;;;;;4993812;28;20054;-79
2024/02/21 06:17:59;;;;;;;9.32;3.75;;;;;;;;;;4993733;28;20085;-79
2024/02/21 06:20:25;;;;;;;14.65;4.30;;;;;;;;;;4991861;28;20031;-78
2024/02/21 06:22:50;;;;;;;11.85;4.57;;;;;;;;;;4993536;28;20035;-79
2024/02/21 06:25:15;;;;;;;11.82;4.28;;;;;;;;;;4989677;28;20041;-78
2024/02/21 06:27:40;;;;;;;11.32;3.97;;;;;;;;;;4993734;28;20026;-78
2024/02/21 06:30:06;;;;;;;10.25;3.90;;;;;;;;;;4989932;28;20399;-79
2024/02/21 06:32:31;;;;;;;15.82;4.65;;;;;;;;;;4992926;28;20073;-78
2024/02/21 06:34:56;;;;;;;11.93;3.58;;;;;;;;;;4995724;28;20031;-78
2024/02/21 06:37:21;;;;;;;10.40;3.85;;;;;;;;;;4993521;28;20088;-78
2024/02/21 06:39:47;;;;;;;14.55;3.92;;;;;;;;;;4993365;28;20113;-79
2024/02/21 06:42:12;;;;;;;13.70;3.63;;;;;;;;;;4991885;28;20035;-79
2024/02/21 06:44:40;;;;;;;16.52;3.42;;;;;;;;;;4992600;28;20038;-78
2024/02/21 06:47:05;;;;;;;10.50;4.18;;;;;;;;;;4993219;28;20034;-79
2024/02/21 06:49:30;;;;;;;10.20;3.15;;;;;;;;;;4993830;28;21673;-78
2024/02/21 06:51:55;;;;;;;11.13;3.03;;;;;;;;;;4997076;28;20038;-78
2024/02/21 06:54:21;;;;;;;12.95;3.30;;;;;;;;;;4994244;28;20281;-79
2024/02/21 06:56:46;;;;;;;14.05;3.63;;;;;;;;;;4993026;28;20069;-78
2024/02/21 06:59:15;;;;;;;8.40;3.50;;;;;;;;;;4992609;28;20085;-80
2024/02/21 07:01:44;;;;;;;13.15;3.72;;;;;;;;;;4990749;28;20080;-80
2024/02/21 07:04:09;;;;;;;12.65;3.72;;;;;;;;;;4992600;28;20026;-79
2024/02/21 07:06:34;;;;;;;13.27;3.50;;;;;;;;;;4993550;28;20045;-80
2024/02/21 07:08:59;;;;;;;8.95;3.25;;;;;;;;;;4992960;28;20040;-79
2024/02/21 07:11:24;;;;;;;11.40;3.40;;;;;;;;;;4992976;28;20056;-80
2024/02/21 07:13:50;;;;;;;8.18;3.30;;;;;;;;;;5002618;28;20034;-80
2024/02/21 07:16:15;;;;;;;8.75;3.10;;;;;;;;;;4993303;28;20407;-79
2024/02/21 07:18:40;;;;;;;13.40;3.78;;;;;;;;;;4998127;28;20038;-79
2024/02/21 07:21:05;;;;;;;11.65;3.65;;;;;;;;;;4992450;28;20038;-79
2024/02/21 07:23:30;;;;;;;14.00;4.03;;;;;;;;;;4996899;28;20096;-80
2024/02/21 07:25:56;;;;;;;11.65;3.72;;;;;;;;;;4993088;28;20057;-80
2024/02/21 07:28:21;;;;;;;12.15;4.22;;;;;;;;;;4992336;28;20038;-79
2024/02/21 07:30:46;;;;;;;10.82;3.53;;;;;;;;;;4992106;28;20034;-79
2024/02/21 07:33:11;;;;;;;12.27;3.90;;;;;;;;;;4992384;28;20045;-79
2024/02/21 07:35:41;;;;;;;10.90;3.67;;;;;;;;;;4994656;28;20052;-78
2024/02/21 07:38:07;;;;;;;12.73;3.28;;;;;;;;;;4990809;28;20546;-79
2024/02/21 07:40:32;;;;;;;10.35;4.03;;;;;;;;;;4991577;28;20038;-79
2024/02/21 07:43:09;;;;;;;11.45;3.30;;;;;;;;;;4989875;28;20026;-79
2024/02/21 07:45:34;;;;;;;15.55;3.25;;;;;;;;;;4993454;28;20029;-80
2024/02/21 07:47:59;;;;;;;10.77;4.00;;;;;;;;;;4992334;28;20774;-78
2024/02/21 07:50:25;;;;;;;11.95;3.22;;;;;;;;;;4994666;28;20137;-78
2024/02/21 07:52:50;;;;;;;8.77;4.28;;;;;;;;;;4992318;28;20022;-79
2024/02/21 07:55:15;;;;;;;12.50;4.95;;;;;;;;;;4992307;28;20483;-79
2024/02/21 07:57:40;;;;;;;10.13;4.00;;;;;;;;;;4993148;28;20105;-79
2024/02/21 08:00:08;;;;;;;11.85;3.75;;;;;;;;;;4991566;28;20046;-79
2024/02/21 08:02:37;;;;;;;9.13;3.97;;;;;;;;;;4991489;28;20030;-79
2024/02/21 08:05:03;;;;;;;12.65;3.72;;;;;;;;;;4991494;28;20038;-79
2024/02/21 08:07:29;;;;;;;10.15;3.20;;;;;;;;;;4991812;28;20129;-79
2024/02/21 08:09:54;;;;;;;12.20;4.07;;;;;;;;;;4991381;28;20026;-79
2024/02/21 08:12:19;;;;;;;12.93;3.67;;;;;;;;;;4990464;28;20050;-79
2024/02/21 08:14:44;;;;;;;13.93;3.88;;;;;;;;;;4991742;28;20034;-79
2024/02/21 08:17:09;;;;;;;13.57;3.92;;;;;;;;;;4990460;28;20472;-79
2024/02/21 08:19:34;;;;;;;12.77;3.63;;;;;;;;;;4991472;28;20034;-79
2024/02/21 08:22:00;;;;;;;13.52;4.13;;;;;;;;;;4991459;28;20526;-79
2024/02/21 08:24:25;;;;;;;12.45;3.88;;;;;;;;;;4991307;28;20034;-79
2024/02/21 08:26:50;;;;;;;13.27;3.88;;;;;;;;;;4991646;28;20102;-79
2024/02/21 08:29:15;;;;;;;9.25;3.30;;;;;;;;;;4991275;28;20092;-79
2024/02/21 08:31:41;;;;;;;10.73;3.58;;;;;;;;;;4997043;28;20022;-79
2024/02/21 08:34:06;;;;;;;9.43;3.70;;;;;;;;;;4990888;28;20034;-79
2024/02/21 08:36:32;;;;;;;11.85;3.33;;;;;;;;;;4993352;28;20069;-79
2024/02/21 08:38:57;;;;;;;9.10;3.58;;;;;;;;;;4988048;28;20126;-80
2024/02/21 08:41:23;;;;;;;13.15;4.40;;;;;;;;;;4991267;28;20041;-79
2024/02/21 08:43:49;;;;;;;11.18;3.42;;;;;;;;;;4991103;28;20070;-79
2024/02/21 08:46:15;;;;;;;10.65;3.85;;;;;;;;;;4991374;28;20073;-79
2024/02/21 08:48:40;;;;;;;10.70;3.97;;;;;;;;;;4991055;28;20049;-79
2024/02/21 08:51:05;;;;;;;12.40;3.08;;;;;;;;;;4989542;28;20036;-80
2024/02/21 08:53:31;;;;;;;12.48;4.60;;;;;;;;;;4989583;28;20151;-79
2024/02/21 08:55:56;;;;;;;13.35;4.25;;;;;;;;;;4991335;28;20034;-79
2024/02/21 08:58:23;;;;;;;15.32;3.72;;;;;;;;;;4993170;28;20034;-80
2024/02/21 09:00:48;;;;;;;12.60;3.53;;;;;;;;;;4988714;28;20065;-78
2024/02/21 09:03:13;;;;;;;10.13;3.67;;;;;;;;;;4990110;28;20031;-79
2024/02/21 09:05:38;;;;;;;9.77;3.53;;;;;;;;;;4991668;28;20661;-80
2024/02/21 09:08:04;;;;;;;11.40;3.80;;;;;;;;;;4992218;28;20030;-80
2024/02/21 09:10:29;;;;;;;14.40;3.72;;;;;;;;;;4994273;28;20559;-79
2024/02/21 09:12:55;;;;;;;9.35;3.35;;;;;;;;;;4995390;28;20667;-79
2024/02/21 09:15:21;;;;;;;14.45;3.92;;;;;;;;;;4994631;28;20041;-79
2024/02/21 09:17:46;;;;;;;10.65;4.13;;;;;;;;;;4995129;28;20030;-79
2024/02/21 09:20:11;;;;;;;9.10;3.15;;;;;;;;;;4994782;28;20418;-79
2024/02/21 09:22:38;;;;;;;12.73;3.95;;;;;;;;;;4994161;28;20035;-79
2024/02/21 09:25:04;;;;;;;11.68;3.78;;;;;;;;;;4994795;28;20030;-79
2024/02/21 09:27:29;;;;;;;11.65;3.53;;;;;;;;;;4995016;28;20038;-79
2024/02/21 09:29:55;;;;;;;8.93;3.80;;;;;;;;;;4998643;28;20034;-79
2024/02/21 09:32:20;;;;;;;10.80;3.67;;;;;;;;;;4994664;28;20037;-79
2024/02/21 09:34:45;;;;;;;10.50;3.70;;;;;;;;;;4995580;28;20277;-80
2024/02/21 09:37:10;;;;;;;15.07;4.50;;;;;;;;;;4995091;28;20035;-80
2024/02/21 09:39:35;;;;;;;16.27;5.00;;;;;;;;;;4994733;28;20658;-80
2024/02/21 09:42:05;;;;;;;11.00;3.83;;;;;;;;;;4993407;28;20117;-79
2024/02/21 09:44:33;;;;;;;12.05;5.20;;;;;;;;;;4994523;28;20181;-79
2024/02/21 09:47:06;;;;;;;10.48;4.75;;;;;;;;;;4994609;28;20034;-80
2024/02/21 09:49:33;;;;;;;11.48;4.07;;;;;;;;;;4993359;28;20030;-79
2024/02/21 09:52:05;;;;;;;8.70;4.10;;;;;;;;;;4992831;28;20160;-79
2024/02/21 09:54:33;;;;;;;;;;;;;;;;;;4995131;28;20066;-80
2024/02/21 09:57:02;;;;;;;8.07;3.58;;;;;;;;;;4995311;28;19913;-80
2024/02/21 09:59:28;;;;;;;9.23;3.83;;;;;;;;;;4996406;28;20046;-78
2024/02/21 10:01:53;;;;;;;11.35;3.75;;;;;;;;;;4994280;28;20105;-80
2024/02/21 10:04:19;;;;;;;12.98;4.00;;;;;;;;;;4995015;28;20038;-80
2024/02/21 10:06:44;;;;;;;11.43;3.95;;;;;;;;;;4994997;28;20030;-80
2024/02/21 10:09:19;;;;;;;13.13;4.10;;;;;;;;;;4993243;28;20030;-80
2024/02/21 10:11:44;;;;;;;14.65;4.03;;;;;;;;;;4993085;28;20026;-80
2024/02/21 10:14:10;;;;;;;9.90;4.10;;;;;;;;;;4994271;28;20438;-80
2024/02/21 10:16:35;;;;;;;12.90;4.22;;;;;;;;;;4996289;28;20392;-79
2024/02/21 10:19:00;;;;;;;14.57;4.15;;;;;;;;;;4994502;28;20510;-79
2024/02/21 10:21:25;;;;;;;8.98;3.60;;;;;;;;;;4993114;28;20037;-79
2024/02/21 10:23:51;;;;;;;12.25;4.05;;;;;;;;;;4993671;28;20030;-79
2024/02/21 10:26:17;;;;;;;11.20;4.03;;;;;;;;;;4993822;28;20045;-79
2024/02/21 10:28:44;;;;;;;10.63;4.60;;;;;;;;;;4992360;28;20038;-79
2024/02/21 10:31:10;;;;;;;10.30;3.97;;;;;;;;;;4990693;28;20034;-79
2024/02/21 10:33:36;;;;;;;12.45;4.80;;;;;;;;;;4993106;28;20070;-79
2024/02/21 10:36:10;;;;;;;11.93;4.47;;;;;;;;;;4993764;28;20489;-79
2024/02/21 10:38:39;;;;;;;11.60;4.07;;;;;;;;;;4994945;28;20065;-79
2024/02/21 10:41:05;;;;;;;12.57;4.20;;;;;;;;;;4993499;28;20033;-79
2024/02/21 10:43:33;;;;;;;12.50;4.28;;;;;;;;;;4993370;28;20034;-80
2024/02/21 10:46:00;;;;;;;14.23;4.18;;;;;;;;;;4998643;28;20027;-80
2024/02/21 10:48:41;;;;;;;10.18;4.18;;;;;;;;;;4993168;28;20030;-80
2024/02/21 10:51:16;;;;;;;10.82;4.38;;;;;;;;;;4992307;28;20042;-80
2024/02/21 10:53:46;;;;;;;12.68;5.03;;;;;;;;;;4990002;28;20124;-80
2024/02/21 10:56:36;;;;;;;11.05;4.53;;;;;;;;;;5000822;28;20030;-80
2024/02/21 10:59:02;;;;;;;11.43;4.25;;;;;;;;;;4999452;28;20048;-80
2024/02/21 11:01:31;;;;;;;12.70;5.03;;;;;;;;;;4994516;28;20066;-80
2024/02/21 11:03:58;;;;;;;9.77;3.55;;;;;;;;;;4999686;28;20474;-80
2024/02/21 11:06:24;;;;;;;14.60;4.80;;;;;;;;;;4996869;28;20554;-80
2024/02/21 11:09:06;;;;;;;15.50;4.63;;;;;;;;;;4997461;28;20066;-79
2024/02/21 11:11:38;;;;;;;10.27;3.83;;;;;;;;;;4991375;28;20122;-79
2024/02/21 11:14:05;;;;;;;14.43;5.03;;;;;;;;;;4991364;28;20097;-79
2024/02/21 11:16:34;;;;;;;9.98;4.38;;;;;;;;;;4995558;28;20042;-79
2024/02/21 11:19:18;;;;;;;10.30;3.75;;;;;;;;;;4995499;28;20046;-80
2024/02/21 11:21:43;;;;;;;8.80;3.72;;;;;;;;;;4994802;28;20400;-79
2024/02/21 11:24:08;;;;;;;9.57;4.30;;;;;;;;;;4993864;28;20039;-80
2024/02/21 11:26:37;;;;;;;13.77;4.17;;;;;;;;;;4993141;28;20052;-79
2024/02/21 11:29:09;;;;;;;8.27;4.07;;;;;;;;;;4995620;28;20339;-79
2024/02/21 11:31:41;;;;;;;11.73;5.00;;;;;;;;;;4993235;28;20410;-79
2024/02/21 11:34:06;;;;;;;;;;;;;;;;;;4993706;28;20073;-79
2024/02/21 11:36:33;;;;;;;8.95;4.15;;;;;;;;;;4994053;28;19926;-79
2024/02/21 11:39:04;;;;;;;10.18;3.65;;;;;;;;;;4997959;28;20045;-79
2024/02/21 11:41:29;;;;;;;11.93;3.80;;;;;;;;;;4991560;28;20034;-80
2024/02/21 11:43:54;;;;;;;11.52;4.53;;;;;;;;;;4993818;28;20035;-79
2024/02/21 11:46:19;;;;;;;12.37;3.90;;;;;;;;;;4993805;28;20045;-79
2024/02/21 11:48:49;;;;;;;11.98;3.53;;;;;;;;;;4993375;28;20270;-79
2024/02/21 11:51:20;;;;;;;13.25;4.65;;;;;;;;;;4993928;28;20061;-79
2024/02/21 11:53:45;;;;;;;12.18;4.50;;;;;;;;;;4991643;28;20436;-80
2024/02/21 11:56:11;;;;;;;10.77;3.67;;;;;;;;;;4995271;28;20093;-81
2024/02/21 11:58:36;;;;;;;8.15;3.85;;;;;;;;;;4995783;28;20041;-80
2024/02/21 12:01:02;;;;;;;10.43;4.03;;;;;;;;;;4994534;28;20116;-79
2024/02/21 12:03:28;;;;;;;9.82;3.30;;;;;;;;;;4994322;28;20289;-81
2024/02/21 12:05:56;;;;;;;10.80;3.55;;;;;;;;;;4994328;28;20126;-79
2024/02/21 12:08:21;;;;;;;9.50;4.13;;;;;;;;;;4991666;28;20026;-80
2024/02/21 12:10:51;;;;;;;11.77;3.75;;;;;;;;;;4991595;28;20034;-79
2024/02/21 12:13:16;;;;;;;9.45;3.50;;;;;;;;;;4991779;28;20030;-79
2024/02/21 12:15:41;;;;;;;9.95;4.63;;;;;;;;;;4993717;28;20113;-80
2024/02/21 12:18:06;;;;;;;11.70;4.20;;;;;;;;;;4994159;28;20026;-80
2024/02/21 12:20:36;;;;;;;10.70;3.50;;;;;;;;;;4991603;28;20038;-80
2024/02/21 12:23:01;;;;;;;8.13;3.17;;;;;;;;;;4997373;28;20304;-80
2024/02/21 12:25:27;;;;;;;10.63;3.35;;;;;;;;;;4990455;28;20031;-80
2024/02/21 12:27:54;;;;;;;8.32;3.65;;;;;;;;;;4993974;28;20506;-79
2024/02/21 12:30:19;;;;;;;12.18;2.97;;;;;;;;;;4992154;28;20183;-80
2024/02/21 12:32:45;;;;;;;7.15;2.90;;;;;;;;;;4992788;28;20481;-80
2024/02/21 12:35:10;;;;;;;9.10;3.05;;;;;;;;;;4989973;28;20645;-79
2024/02/21 12:37:35;;;;;;;9.35;3.03;;;;;;;;;;4991818;28;20038;-80
2024/02/21 12:40:00;;;;;;;8.07;2.97;;;;;;;;;;4989979;28;20026;-80
2024/02/21 12:42:25;;;;;;;9.13;3.10;;;;;;;;;;4990718;28;20320;-80
2024/02/21 12:44:52;;;;;;;5.82;2.58;;;;;;;;;;4991504;28;20305;-80
2024/02/21 12:47:19;;;;;;;4.15;2.05;;;;;;;;;;4994356;28;20033;-80
2024/02/21 12:49:44;;;;;;;8.15;2.10;;;;;;;;;;4991000;28;20050;-80
2024/02/21 12:52:10;;;;;;;6.95;2.70;;;;;;;;;;4991330;28;20030;-80
2024/02/21 12:54:35;;;;;;;6.40;2.78;;;;;;;;;;4991267;28;20495;-80
2024/02/21 12:57:02;;;;;;;7.70;2.63;;;;;;;;;;4993732;28;20552;-80
2024/02/21 12:59:28;;;;;;;9.70;3.08;;;;;;;;;;4990510;28;20078;-80
2024/02/21 13:01:53;;;;;;;8.98;3.53;;;;;;;;;;4990694;28;20061;-79
2024/02/21 13:04:19;;;;;;;11.57;4.22;;;;;;;;;;4990133;28;20038;-80
2024/02/21 13:06:44;;;;;;;5.78;2.80;;;;;;;;;;4989277;28;20034;-79
2024/02/21 13:09:11;;;;;;;10.50;3.60;;;;;;;;;;4990444;28;20026;-80
2024/02/21 13:11:37;;;;;;;8.68;2.70;;;;;;;;;;4987742;28;20030;-80
2024/02/21 13:14:02;;;;;;;8.32;2.67;;;;;;;;;;4989578;28;20034;-80
2024/02/21 13:16:28;;;;;;;8.98;3.03;;;;;;;;;;4992300;28;20041;-80
2024/02/21 13:18:53;;;;;;;7.73;2.67;;;;;;;;;;4986737;28;20510;-80
2024/02/21 13:21:18;;;;;;;8.30;2.72;;;;;;;;;;4990587;28;20280;-80
2024/02/21 13:23:44;;;;;;;13.20;4.57;;;;;;;;;;4989586;28;20526;-80
2024/02/21 13:26:09;;;;;;;8.07;2.53;;;;;;;;;;4991630;28;20031;-80
2024/02/21 13:28:35;;;;;;;7.53;3.03;;;;;;;;;;4991342;28;20121;-80
2024/02/21 13:31:00;;;;;;;6.65;2.50;;;;;;;;;;4992041;28;20030;-80
2024/02/21 13:33:25;;;;;;;5.32;2.30;;;;;;;;;;4990937;28;20092;-80
2024/02/21 13:35:50;;;;;;;7.60;2.83;;;;;;;;;;4988126;28;20234;-80
2024/02/21 13:38:16;;;;;;;5.33;2.17;;;;;;;;;;4993847;28;20790;-80
2024/02/21 13:40:42;;;;;;;8.10;2.83;;;;;;;;;;4991253;28;20308;-80
2024/02/21 13:43:07;;;;;;;4.55;2.10;;;;;;;;;;4991092;28;20066;-79
2024/02/21 13:45:33;;;;;;;7.05;2.55;;;;;;;;;;4990582;28;20058;-80
2024/02/21 13:47:59;;;;;;;7.88;2.47;;;;;;;;;;4997651;28;20137;-80
2024/02/21 13:50:29;;;;;;;4.82;1.80;;;;;;;;;;4987565;28;20407;-80
2024/02/21 13:52:54;;;;;;;5.22;1.98;;;;;;;;;;4990180;28;20026;-80
2024/02/21 13:55:22;;;;;;;6.83;2.23;;;;;;;;;;4995557;28;20053;-80
2024/02/21 13:57:47;;;;;;;6.13;2.42;;;;;;;;;;4991301;28;20665;-80
2024/02/21 14:00:12;;;;;;;4.70;2.33;;;;;;;;;;4996909;28;20047;-79
2024/02/21 14:02:38;;;;;;;5.20;2.22;;;;;;;;;;4994223;28;20266;-80
2024/02/21 14:05:05;;;;;;;4.57;1.90;;;;;;;;;;4993012;28;20082;-82
2024/02/21 14:07:31;;;;;;;5.35;2.13;;;;;;;;;;4993311;28;20483;-81
2024/02/21 14:09:56;;;;;;;6.47;2.22;;;;;;;;;;5003592;28;20041;-81
2024/02/21 14:12:21;;;;;;;5.80;1.83;;;;;;;;;;4997588;28;20038;-81
2024/02/21 14:14:47;;;;;;;6.35;1.95;;;;;;;;;;5000506;28;20281;-81
2024/02/21 14:17:12;;;;;;;4.75;1.75;;;;;;;;;;4994635;28;20038;-81
2024/02/21 14:19:38;;;;;;;3.80;1.63;;;;;;;;;;4991929;28;20152;-80
2024/02/21 14:22:03;;;;;;;5.28;2.08;;;;;;;;;;4992373;28;20038;-81
2024/02/21 14:24:28;;;;;;;4.30;1.40;;;;;;;;;;4993260;28;20031;-81
2024/02/21 14:26:53;;;;;;;5.80;2.25;;;;;;;;;;4993882;28;20475;-80